sensor_id;sensor_type;location;lat;lon;timestamp;temperature;humidity
14210;DHT22;7188;56.070;12.698;2022-07-11T00:02:09;14.90;99.90
14210;DHT22;7188;56.070;12.698;2022-07-11T00:04:36;15.00;99.90
14210;DHT22;7188;56.070;12.698;2022-07-11T00:07:02;15.00;99.90
14210;DHT22;7188;56.070;12.698;2022-07-11T00:09:29;15.00;99.90
14210;DHT22;7188;56.070;12.698;2022-07-11T00:11:55;14.90;99.90
14210;DHT22;7188;56.070;12.698;2022-07-11T00:14:21;14.90;99.90
14210;DHT22;7188;56.070;12.698;2022-07-11T00:16:48;14.90;99.90
14210;DHT22;7188;56.070;12.698;2022-07-11T00:19:14;14.80;99.90
14210;DHT22;7188;56.070;12.698;2022-07-11T00:21:40;14.80;99.90
14210;DHT22;7188;56.070;12.698;2022-07-11T00:24:06;14.80;99.90
14210;DHT22;7188;56.070;12.698;2022-07-11T00:26:33;14.70;99.90
14210;DHT22;7188;56.070;12.698;2022-07-11T00:28:59;14.70;99.90
14210;DHT22;7188;56.070;12.698;2022-07-11T00:31:25;14.70;99.90
14210;DHT22;7188;56.070;12.698;2022-07-11T00:33:50;14.70;99.90
14210;DHT22;7188;56.070;12.698;2022-07-11T00:36:16;14.70;99.90
14210;DHT22;7188;56.070;12.698;2022-07-11T00:38:41;14.80;99.90
14210;DHT22;7188;56.070;12.698;2022-07-11T00:41:07;14.80;99.90
14210;DHT22;7188;56.070;12.698;2022-07-11T00:43:37;14.80;99.90
14210;DHT22;7188;56.070;12.698;2022-07-11T00:46:06;14.80;99.90
14210;DHT22;7188;56.070;12.698;2022-07-11T00:48:32;14.80;99.90
14210;DHT22;7188;56.070;12.698;2022-07-11T00:50:59;14.70;99.90
14210;DHT22;7188;56.070;12.698;2022-07-11T00:53:24;14.70;99.90
14210;DHT22;7188;56.070;12.698;2022-07-11T00:55:54;14.70;99.90
14210;DHT22;7188;56.070;12.698;2022-07-11T00:58:21;14.70;99.90
14210;DHT22;7188;56.070;12.698;2022-07-11T01:00:47;14.70;99.90
14210;DHT22;7188;56.070;12.698;2022-07-11T01:03:13;14.70;99.90
14210;DHT22;7188;56.070;12.698;2022-07-11T01:05:39;14.60;99.90
14210;DHT22;7188;56.070;12.698;2022-07-11T01:08:05;14.60;99.90
14210;DHT22;7188;56.070;12.698;2022-07-11T01:10:31;14.60;99.90
14210;DHT22;7188;56.070;12.698;2022-07-11T01:12:57;14.60;99.90
14210;DHT22;7188;56.070;12.698;2022-07-11T01:15:23;14.60;99.90
14210;DHT22;7188;56.070;12.698;2022-07-11T01:17:50;14.60;99.90
14210;DHT22;7188;56.070;12.698;2022-07-11T01:20:17;14.50;99.90
14210;DHT22;7188;56.070;12.698;2022-07-11T01:23:06;14.50;99.90
14210;DHT22;7188;56.070;12.698;2022-07-11T01:25:32;14.50;99.90
14210;DHT22;7188;56.070;12.698;2022-07-11T01:28:04;14.50;99.90
14210;DHT22;7188;56.070;12.698;2022-07-11T01:30:32;14.50;99.90
14210;DHT22;7188;56.070;12.698;2022-07-11T01:32:58;14.50;99.90
14210;DHT22;7188;56.070;12.698;2022-07-11T01:35:25;14.50;99.90
14210;DHT22;7188;56.070;12.698;2022-07-11T01:37:51;14.50;99.90
14210;DHT22;7188;56.070;12.698;2022-07-11T01:40:17;14.50;99.90
14210;DHT22;7188;56.070;12.698;2022-07-11T01:42:43;14.50;99.90
14210;DHT22;7188;56.070;12.698;2022-07-11T01:45:10;14.50;99.90
14210;DHT22;7188;56.070;12.698;2022-07-11T01:47:36;14.50;99.90
14210;DHT22;7188;56.070;12.698;2022-07-11T01:50:02;14.50;99.90
14210;DHT22;7188;56.070;12.698;2022-07-11T01:52:28;14.50;99.90
14210;DHT22;7188;56.070;12.698;2022-07-11T01:54:54;14.50;99.90
14210;DHT22;7188;56.070;12.698;2022-07-11T01:57:19;14.50;99.90
14210;DHT22;7188;56.070;12.698;2022-07-11T01:59:45;14.50;99.90
14210;DHT22;7188;56.070;12.698;2022-07-11T02:02:12;14.60;99.90
14210;DHT22;7188;56.070;12.698;2022-07-11T02:04:38;14.60;99.90
14210;DHT22;7188;56.070;12.698;2022-07-11T02:07:03;14.60;99.90
14210;DHT22;7188;56.070;12.698;2022-07-11T02:09:29;14.70;99.90
14210;DHT22;7188;56.070;12.698;2022-07-11T02:12:05;14.70;99.90
14210;DHT22;7188;56.070;12.698;2022-07-11T02:14:31;14.70;99.90
14210;DHT22;7188;56.070;12.698;2022-07-11T02:16:57;14.70;99.90
14210;DHT22;7188;56.070;12.698;2022-07-11T02:19:23;14.70;99.90
14210;DHT22;7188;56.070;12.698;2022-07-11T02:21:48;14.70;99.90
14210;DHT22;7188;56.070;12.698;2022-07-11T02:24:14;14.70;99.90
14210;DHT22;7188;56.070;12.698;2022-07-11T02:26:40;14.60;99.90
14210;DHT22;7188;56.070;12.698;2022-07-11T02:29:05;14.70;99.90
14210;DHT22;7188;56.070;12.698;2022-07-11T02:31:31;14.70;99.90
14210;DHT22;7188;56.070;12.698;2022-07-11T02:33:56;14.70;99.90
14210;DHT22;7188;56.070;12.698;2022-07-11T02:36:22;14.70;99.90
14210;DHT22;7188;56.070;12.698;2022-07-11T02:38:48;14.60;99.90
14210;DHT22;7188;56.070;12.698;2022-07-11T02:41:13;14.70;99.90
14210;DHT22;7188;56.070;12.698;2022-07-11T02:43:39;14.70;99.90
14210;DHT22;7188;56.070;12.698;2022-07-11T02:46:04;14.70;99.90
14210;DHT22;7188;56.070;12.698;2022-07-11T02:48:31;14.60;99.90
14210;DHT22;7188;56.070;12.698;2022-07-11T02:50:57;14.70;99.90
14210;DHT22;7188;56.070;12.698;2022-07-11T02:53:23;14.70;99.90
14210;DHT22;7188;56.070;12.698;2022-07-11T02:55:48;14.80;99.90
14210;DHT22;7188;56.070;12.698;2022-07-11T02:58:14;14.80;99.90
14210;DHT22;7188;56.070;12.698;2022-07-11T03:00:40;14.80;99.90
14210;DHT22;7188;56.070;12.698;2022-07-11T03:03:06;14.80;99.90
14210;DHT22;7188;56.070;12.698;2022-07-11T03:05:31;14.80;99.90
14210;DHT22;7188;56.070;12.698;2022-07-11T03:07:57;15.00;99.90
14210;DHT22;7188;56.070;12.698;2022-07-11T03:10:23;15.00;99.90
14210;DHT22;7188;56.070;12.698;2022-07-11T03:12:49;15.20;99.90
14210;DHT22;7188;56.070;12.698;2022-07-11T03:15:14;15.20;99.90
14210;DHT22;7188;56.070;12.698;2022-07-11T03:17:40;15.20;99.90
14210;DHT22;7188;56.070;12.698;2022-07-11T03:20:07;15.20;99.90
14210;DHT22;7188;56.070;12.698;2022-07-11T03:22:33;15.20;99.90
14210;DHT22;7188;56.070;12.698;2022-07-11T03:24:59;15.50;99.90
14210;DHT22;7188;56.070;12.698;2022-07-11T03:27:26;15.60;99.90
14210;DHT22;7188;56.070;12.698;2022-07-11T03:29:52;15.80;99.90
14210;DHT22;7188;56.070;12.698;2022-07-11T03:32:17;15.80;99.90
14210;DHT22;7188;56.070;12.698;2022-07-11T03:34:46;15.80;99.90
14210;DHT22;7188;56.070;12.698;2022-07-11T03:37:32;15.90;99.90
14210;DHT22;7188;56.070;12.698;2022-07-11T03:39:58;16.40;99.90
14210;DHT22;7188;56.070;12.698;2022-07-11T03:42:25;17.00;99.90
14210;DHT22;7188;56.070;12.698;2022-07-11T03:44:51;17.40;99.90
14210;DHT22;7188;56.070;12.698;2022-07-11T03:47:17;17.90;99.90
14210;DHT22;7188;56.070;12.698;2022-07-11T03:49:43;18.10;99.90
14210;DHT22;7188;56.070;12.698;2022-07-11T03:52:08;18.20;99.90
14210;DHT22;7188;56.070;12.698;2022-07-11T03:54:34;18.10;99.90
14210;DHT22;7188;56.070;12.698;2022-07-11T03:57:00;17.70;99.90
14210;DHT22;7188;56.070;12.698;2022-07-11T03:59:25;17.40;99.90
14210;DHT22;7188;56.070;12.698;2022-07-11T04:01:51;17.10;99.90
14210;DHT22;7188;56.070;12.698;2022-07-11T04:04:16;17.10;99.90
14210;DHT22;7188;56.070;12.698;2022-07-11T04:06:42;17.20;99.90
14210;DHT22;7188;56.070;12.698;2022-07-11T04:09:09;17.40;99.90
14210;DHT22;7188;56.070;12.698;2022-07-11T04:11:36;17.70;99.90
14210;DHT22;7188;56.070;12.698;2022-07-11T04:14:02;17.90;99.90
14210;DHT22;7188;56.070;12.698;2022-07-11T04:16:28;18.10;99.90
14210;DHT22;7188;56.070;12.698;2022-07-11T04:18:53;18.30;99.90
14210;DHT22;7188;56.070;12.698;2022-07-11T04:21:19;18.40;99.90
14210;DHT22;7188;56.070;12.698;2022-07-11T04:23:45;18.70;99.90
14210;DHT22;7188;56.070;12.698;2022-07-11T04:26:10;18.80;99.90
14210;DHT22;7188;56.070;12.698;2022-07-11T04:28:36;18.80;99.90
14210;DHT22;7188;56.070;12.698;2022-07-11T04:31:01;18.80;99.90
14210;DHT22;7188;56.070;12.698;2022-07-11T04:33:28;18.80;99.90
14210;DHT22;7188;56.070;12.698;2022-07-11T04:35:54;18.90;99.90
14210;DHT22;7188;56.070;12.698;2022-07-11T04:38:19;18.80;99.90
14210;DHT22;7188;56.070;12.698;2022-07-11T04:40:49;18.90;99.90
14210;DHT22;7188;56.070;12.698;2022-07-11T04:43:15;19.10;99.90
14210;DHT22;7188;56.070;12.698;2022-07-11T04:45:41;19.10;99.90
14210;DHT22;7188;56.070;12.698;2022-07-11T04:48:06;19.30;99.90
14210;DHT22;7188;56.070;12.698;2022-07-11T04:50:32;19.30;99.90
14210;DHT22;7188;56.070;12.698;2022-07-11T04:52:57;19.40;99.90
14210;DHT22;7188;56.070;12.698;2022-07-11T04:55:23;19.40;99.90
14210;DHT22;7188;56.070;12.698;2022-07-11T04:57:49;19.50;99.90
14210;DHT22;7188;56.070;12.698;2022-07-11T05:00:15;19.50;99.90
14210;DHT22;7188;56.070;12.698;2022-07-11T05:02:41;19.60;99.90
14210;DHT22;7188;56.070;12.698;2022-07-11T05:05:07;19.60;99.90
14210;DHT22;7188;56.070;12.698;2022-07-11T05:07:33;19.70;99.90
14210;DHT22;7188;56.070;12.698;2022-07-11T05:09:58;19.70;99.90
14210;DHT22;7188;56.070;12.698;2022-07-11T05:12:24;19.70;99.90
14210;DHT22;7188;56.070;12.698;2022-07-11T05:14:50;19.70;99.90
14210;DHT22;7188;56.070;12.698;2022-07-11T05:17:16;19.80;99.90
14210;DHT22;7188;56.070;12.698;2022-07-11T05:19:41;19.90;99.90
14210;DHT22;7188;56.070;12.698;2022-07-11T05:22:07;19.90;99.90
14210;DHT22;7188;56.070;12.698;2022-07-11T05:24:33;19.90;99.90
14210;DHT22;7188;56.070;12.698;2022-07-11T05:26:58;19.70;99.90
14210;DHT22;7188;56.070;12.698;2022-07-11T05:29:24;19.90;99.90
14210;DHT22;7188;56.070;12.698;2022-07-11T05:31:50;19.90;99.90
14210;DHT22;7188;56.070;12.698;2022-07-11T05:34:19;19.90;99.90
14210;DHT22;7188;56.070;12.698;2022-07-11T05:36:45;19.70;99.90
14210;DHT22;7188;56.070;12.698;2022-07-11T05:39:12;19.70;99.90
14210;DHT22;7188;56.070;12.698;2022-07-11T05:41:38;19.90;99.90
14210;DHT22;7188;56.070;12.698;2022-07-11T05:44:03;20.00;99.90
14210;DHT22;7188;56.070;12.698;2022-07-11T05:46:29;19.90;99.90
14210;DHT22;7188;56.070;12.698;2022-07-11T05:48:55;19.70;99.90
14210;DHT22;7188;56.070;12.698;2022-07-11T05:51:20;19.60;99.90
14210;DHT22;7188;56.070;12.698;2022-07-11T05:54:10;19.50;99.90
14210;DHT22;7188;56.070;12.698;2022-07-11T05:56:48;19.60;99.90
14210;DHT22;7188;56.070;12.698;2022-07-11T05:59:14;19.70;99.90
14210;DHT22;7188;56.070;12.698;2022-07-11T06:01:40;20.00;99.90
14210;DHT22;7188;56.070;12.698;2022-07-11T06:04:06;20.10;99.90
14210;DHT22;7188;56.070;12.698;2022-07-11T06:06:32;20.30;99.90
14210;DHT22;7188;56.070;12.698;2022-07-11T06:08:58;20.30;99.90
14210;DHT22;7188;56.070;12.698;2022-07-11T06:11:24;20.20;99.90
14210;DHT22;7188;56.070;12.698;2022-07-11T06:13:49;20.20;99.90
14210;DHT22;7188;56.070;12.698;2022-07-11T06:16:15;19.90;99.90
14210;DHT22;7188;56.070;12.698;2022-07-11T06:18:42;19.90;99.90
14210;DHT22;7188;56.070;12.698;2022-07-11T06:21:08;19.90;99.90
14210;DHT22;7188;56.070;12.698;2022-07-11T06:23:34;19.90;99.90
14210;DHT22;7188;56.070;12.698;2022-07-11T06:26:00;19.90;99.90
14210;DHT22;7188;56.070;12.698;2022-07-11T06:28:27;20.00;99.90
14210;DHT22;7188;56.070;12.698;2022-07-11T06:30:52;20.10;99.90
14210;DHT22;7188;56.070;12.698;2022-07-11T06:33:19;20.30;99.90
14210;DHT22;7188;56.070;12.698;2022-07-11T06:35:45;20.10;99.90
14210;DHT22;7188;56.070;12.698;2022-07-11T06:38:12;20.00;99.90
14210;DHT22;7188;56.070;12.698;2022-07-11T06:40:38;20.20;99.90
14210;DHT22;7188;56.070;12.698;2022-07-11T06:43:04;20.20;99.90
14210;DHT22;7188;56.070;12.698;2022-07-11T06:45:32;20.30;99.90
14210;DHT22;7188;56.070;12.698;2022-07-11T06:47:58;20.10;99.90
14210;DHT22;7188;56.070;12.698;2022-07-11T06:50:24;20.10;99.90
14210;DHT22;7188;56.070;12.698;2022-07-11T06:52:50;20.10;99.90
14210;DHT22;7188;56.070;12.698;2022-07-11T06:55:15;20.10;99.90
14210;DHT22;7188;56.070;12.698;2022-07-11T06:57:41;20.10;99.90
14210;DHT22;7188;56.070;12.698;2022-07-11T07:00:07;20.00;99.90
14210;DHT22;7188;56.070;12.698;2022-07-11T07:02:34;19.80;99.90
14210;DHT22;7188;56.070;12.698;2022-07-11T07:05:00;19.80;99.90
14210;DHT22;7188;56.070;12.698;2022-07-11T07:07:27;20.10;99.90
14210;DHT22;7188;56.070;12.698;2022-07-11T07:09:53;20.20;99.90
14210;DHT22;7188;56.070;12.698;2022-07-11T07:12:23;20.10;99.90
14210;DHT22;7188;56.070;12.698;2022-07-11T07:15:00;19.90;99.90
14210;DHT22;7188;56.070;12.698;2022-07-11T07:17:26;19.70;99.90
14210;DHT22;7188;56.070;12.698;2022-07-11T07:19:52;19.60;99.90
14210;DHT22;7188;56.070;12.698;2022-07-11T07:22:17;19.70;99.90
14210;DHT22;7188;56.070;12.698;2022-07-11T07:24:43;19.60;99.90
14210;DHT22;7188;56.070;12.698;2022-07-11T07:27:09;19.30;99.90
14210;DHT22;7188;56.070;12.698;2022-07-11T07:29:35;19.30;99.90
14210;DHT22;7188;56.070;12.698;2022-07-11T07:32:01;19.50;99.90
14210;DHT22;7188;56.070;12.698;2022-07-11T07:34:27;19.70;99.90
14210;DHT22;7188;56.070;12.698;2022-07-11T07:36:53;19.90;99.90
14210;DHT22;7188;56.070;12.698;2022-07-11T07:39:18;19.70;99.90
14210;DHT22;7188;56.070;12.698;2022-07-11T07:41:44;19.60;99.90
14210;DHT22;7188;56.070;12.698;2022-07-11T07:44:10;19.50;99.90
14210;DHT22;7188;56.070;12.698;2022-07-11T07:46:36;19.40;99.90
14210;DHT22;7188;56.070;12.698;2022-07-11T07:49:02;19.40;99.90
14210;DHT22;7188;56.070;12.698;2022-07-11T07:51:29;19.50;99.90
14210;DHT22;7188;56.070;12.698;2022-07-11T07:53:55;19.40;99.90
14210;DHT22;7188;56.070;12.698;2022-07-11T07:56:20;19.60;99.90
14210;DHT22;7188;56.070;12.698;2022-07-11T07:58:46;19.70;99.90
14210;DHT22;7188;56.070;12.698;2022-07-11T08:01:12;19.80;99.90
14210;DHT22;7188;56.070;12.698;2022-07-11T08:03:56;19.70;99.90
14210;DHT22;7188;56.070;12.698;2022-07-11T08:06:23;19.60;99.90
14210;DHT22;7188;56.070;12.698;2022-07-11T08:08:48;19.70;99.90
14210;DHT22;7188;56.070;12.698;2022-07-11T08:11:15;19.40;99.90
14210;DHT22;7188;56.070;12.698;2022-07-11T08:13:41;19.40;99.90
14210;DHT22;7188;56.070;12.698;2022-07-11T08:16:07;19.40;99.90
14210;DHT22;7188;56.070;12.698;2022-07-11T08:18:33;19.50;99.90
14210;DHT22;7188;56.070;12.698;2022-07-11T08:20:59;19.60;99.90
14210;DHT22;7188;56.070;12.698;2022-07-11T08:23:25;19.60;99.90
14210;DHT22;7188;56.070;12.698;2022-07-11T08:25:51;19.60;99.90
14210;DHT22;7188;56.070;12.698;2022-07-11T08:28:18;19.40;99.90
14210;DHT22;7188;56.070;12.698;2022-07-11T08:30:43;19.20;99.90
14210;DHT22;7188;56.070;12.698;2022-07-11T08:33:10;19.30;99.90
14210;DHT22;7188;56.070;12.698;2022-07-11T08:35:36;19.40;99.90
14210;DHT22;7188;56.070;12.698;2022-07-11T08:38:02;19.40;99.90
14210;DHT22;7188;56.070;12.698;2022-07-11T08:40:27;19.40;99.90
14210;DHT22;7188;56.070;12.698;2022-07-11T08:42:55;19.40;99.90
14210;DHT22;7188;56.070;12.698;2022-07-11T08:45:26;19.50;99.90
14210;DHT22;7188;56.070;12.698;2022-07-11T08:47:54;19.60;99.90
14210;DHT22;7188;56.070;12.698;2022-07-11T08:50:26;19.70;99.90
14210;DHT22;7188;56.070;12.698;2022-07-11T08:52:57;19.60;99.90
14210;DHT22;7188;56.070;12.698;2022-07-11T08:55:23;19.70;99.90
14210;DHT22;7188;56.070;12.698;2022-07-11T08:57:48;19.80;99.90
14210;DHT22;7188;56.070;12.698;2022-07-11T09:00:14;19.80;99.90
14210;DHT22;7188;56.070;12.698;2022-07-11T09:02:42;19.90;99.90
14210;DHT22;7188;56.070;12.698;2022-07-11T09:05:09;20.10;99.90
14210;DHT22;7188;56.070;12.698;2022-07-11T09:07:45;20.10;99.90
14210;DHT22;7188;56.070;12.698;2022-07-11T09:10:12;19.80;99.90
14210;DHT22;7188;56.070;12.698;2022-07-11T09:18:02;19.90;99.90
14210;DHT22;7188;56.070;12.698;2022-07-11T09:20:28;20.00;99.90
14210;DHT22;7188;56.070;12.698;2022-07-11T09:23:20;20.10;99.90
14210;DHT22;7188;56.070;12.698;2022-07-11T09:26:05;20.30;99.90
14210;DHT22;7188;56.070;12.698;2022-07-11T09:28:31;20.30;99.90
14210;DHT22;7188;56.070;12.698;2022-07-11T09:30:57;20.30;99.90
14210;DHT22;7188;56.070;12.698;2022-07-11T09:33:22;20.30;99.90
14210;DHT22;7188;56.070;12.698;2022-07-11T09:35:48;20.00;99.90
14210;DHT22;7188;56.070;12.698;2022-07-11T09:38:16;19.80;99.90
14210;DHT22;7188;56.070;12.698;2022-07-11T09:40:47;19.50;99.90
14210;DHT22;7188;56.070;12.698;2022-07-11T09:43:13;19.50;99.90
14210;DHT22;7188;56.070;12.698;2022-07-11T09:45:39;19.40;99.90
14210;DHT22;7188;56.070;12.698;2022-07-11T09:48:13;19.40;99.90
14210;DHT22;7188;56.070;12.698;2022-07-11T09:50:40;19.70;99.90
14210;DHT22;7188;56.070;12.698;2022-07-11T09:53:19;19.90;99.90
14210;DHT22;7188;56.070;12.698;2022-07-11T09:55:45;19.90;99.90
14210;DHT22;7188;56.070;12.698;2022-07-11T09:58:13;19.80;99.90
14210;DHT22;7188;56.070;12.698;2022-07-11T10:00:40;19.70;99.90
14210;DHT22;7188;56.070;12.698;2022-07-11T10:03:08;19.80;99.90
14210;DHT22;7188;56.070;12.698;2022-07-11T10:05:34;19.60;99.90
14210;DHT22;7188;56.070;12.698;2022-07-11T10:08:01;19.60;99.90
14210;DHT22;7188;56.070;12.698;2022-07-11T10:10:28;19.60;99.90
14210;DHT22;7188;56.070;12.698;2022-07-11T10:12:54;19.70;99.90
14210;DHT22;7188;56.070;12.698;2022-07-11T10:20:30;19.70;99.90
14210;DHT22;7188;56.070;12.698;2022-07-11T10:25:44;19.70;99.90
14210;DHT22;7188;56.070;12.698;2022-07-11T10:30:49;19.40;99.90
14210;DHT22;7188;56.070;12.698;2022-07-11T10:33:16;19.30;99.90
14210;DHT22;7188;56.070;12.698;2022-07-11T10:35:44;19.40;99.90
14210;DHT22;7188;56.070;12.698;2022-07-11T10:38:10;19.60;99.90
14210;DHT22;7188;56.070;12.698;2022-07-11T10:40:56;19.80;99.90
14210;DHT22;7188;56.070;12.698;2022-07-11T10:45:57;19.60;99.90
14210;DHT22;7188;56.070;12.698;2022-07-11T10:48:24;19.60;99.90
14210;DHT22;7188;56.070;12.698;2022-07-11T10:54:05;20.00;99.90
14210;DHT22;7188;56.070;12.698;2022-07-11T10:57:33;20.20;99.90
14210;DHT22;7188;56.070;12.698;2022-07-11T10:59:33;19.90;99.90
14210;DHT22;7188;56.070;12.698;2022-07-11T11:02:11;19.80;99.90
14210;DHT22;7188;56.070;12.698;2022-07-11T11:04:56;20.20;99.90
14210;DHT22;7188;56.070;12.698;2022-07-11T11:10:03;19.70;99.90
14210;DHT22;7188;56.070;12.698;2022-07-11T11:15:51;20.00;99.90
14210;DHT22;7188;56.070;12.698;2022-07-11T11:23:36;20.30;99.90
14210;DHT22;7188;56.070;12.698;2022-07-11T11:26:15;20.10;99.90
14210;DHT22;7188;56.070;12.698;2022-07-11T11:29:05;20.30;99.90
14210;DHT22;7188;56.070;12.698;2022-07-11T11:31:32;20.20;99.90
14210;DHT22;7188;56.070;12.698;2022-07-11T11:34:00;20.10;99.90
14210;DHT22;7188;56.070;12.698;2022-07-11T11:36:27;19.90;99.90
14210;DHT22;7188;56.070;12.698;2022-07-11T11:38:53;19.70;99.90
14210;DHT22;7188;56.070;12.698;2022-07-11T11:41:28;19.50;99.90
14210;DHT22;7188;56.070;12.698;2022-07-11T11:43:58;19.60;99.90
14210;DHT22;7188;56.070;12.698;2022-07-11T11:46:25;19.60;99.90
14210;DHT22;7188;56.070;12.698;2022-07-11T11:48:57;19.70;99.90
14210;DHT22;7188;56.070;12.698;2022-07-11T11:51:24;19.90;99.90
14210;DHT22;7188;56.070;12.698;2022-07-11T11:53:51;20.00;99.90
14210;DHT22;7188;56.070;12.698;2022-07-11T11:56:22;19.90;99.90
14210;DHT22;7188;56.070;12.698;2022-07-11T11:58:49;19.60;99.90
14210;DHT22;7188;56.070;12.698;2022-07-11T12:01:24;19.80;99.90
14210;DHT22;7188;56.070;12.698;2022-07-11T12:03:53;20.00;99.90
14210;DHT22;7188;56.070;12.698;2022-07-11T12:06:32;20.10;99.90
14210;DHT22;7188;56.070;12.698;2022-07-11T12:09:01;20.00;99.90
14210;DHT22;7188;56.070;12.698;2022-07-11T12:11:28;19.80;99.90
14210;DHT22;7188;56.070;12.698;2022-07-11T12:14:04;19.80;99.90
14210;DHT22;7188;56.070;12.698;2022-07-11T12:16:31;20.00;99.90
14210;DHT22;7188;56.070;12.698;2022-07-11T12:21:44;20.10;99.90
14210;DHT22;7188;56.070;12.698;2022-07-11T12:24:20;20.10;99.90
14210;DHT22;7188;56.070;12.698;2022-07-11T12:26:46;20.50;99.90
14210;DHT22;7188;56.070;12.698;2022-07-11T12:31:48;20.40;99.90
14210;DHT22;7188;56.070;12.698;2022-07-11T12:34:19;20.40;99.90
14210;DHT22;7188;56.070;12.698;2022-07-11T12:36:45;20.50;99.90
14210;DHT22;7188;56.070;12.698;2022-07-11T12:39:22;20.50;99.90
14210;DHT22;7188;56.070;12.698;2022-07-11T12:41:50;20.60;99.90
14210;DHT22;7188;56.070;12.698;2022-07-11T12:44:26;20.60;99.90
14210;DHT22;7188;56.070;12.698;2022-07-11T12:47:12;20.40;99.90
14210;DHT22;7188;56.070;12.698;2022-07-11T12:49:38;20.20;99.90
14210;DHT22;7188;56.070;12.698;2022-07-11T12:52:10;20.30;99.90
14210;DHT22;7188;56.070;12.698;2022-07-11T12:54:36;20.50;99.90
14210;DHT22;7188;56.070;12.698;2022-07-11T12:57:02;20.50;99.90
14210;DHT22;7188;56.070;12.698;2022-07-11T12:59:30;20.50;99.90
14210;DHT22;7188;56.070;12.698;2022-07-11T13:02:12;20.50;99.90
14210;DHT22;7188;56.070;12.698;2022-07-11T13:04:49;20.40;99.90
14210;DHT22;7188;56.070;12.698;2022-07-11T13:10:24;20.20;99.90
14210;DHT22;7188;56.070;12.698;2022-07-11T13:12:52;20.20;99.90
14210;DHT22;7188;56.070;12.698;2022-07-11T13:15:18;20.40;99.90
14210;DHT22;7188;56.070;12.698;2022-07-11T13:17:49;20.50;99.90
14210;DHT22;7188;56.070;12.698;2022-07-11T13:20:26;20.40;99.90
14210;DHT22;7188;56.070;12.698;2022-07-11T13:22:54;20.40;99.90
14210;DHT22;7188;56.070;12.698;2022-07-11T13:25:21;20.40;99.90
14210;DHT22;7188;56.070;12.698;2022-07-11T13:27:48;20.60;99.90
14210;DHT22;7188;56.070;12.698;2022-07-11T13:30:16;20.50;99.90
14210;DHT22;7188;56.070;12.698;2022-07-11T13:32:43;20.30;99.90
14210;DHT22;7188;56.070;12.698;2022-07-11T13:35:10;20.40;99.90
14210;DHT22;7188;56.070;12.698;2022-07-11T13:37:35;20.40;99.90
14210;DHT22;7188;56.070;12.698;2022-07-11T13:40:04;20.20;99.90
14210;DHT22;7188;56.070;12.698;2022-07-11T13:42:31;20.30;99.90
14210;DHT22;7188;56.070;12.698;2022-07-11T13:45:01;20.30;99.90
14210;DHT22;7188;56.070;12.698;2022-07-11T13:47:27;20.30;99.90
14210;DHT22;7188;56.070;12.698;2022-07-11T13:49:52;20.50;99.90
14210;DHT22;7188;56.070;12.698;2022-07-11T13:52:18;20.50;99.90
14210;DHT22;7188;56.070;12.698;2022-07-11T13:54:44;20.60;99.90
14210;DHT22;7188;56.070;12.698;2022-07-11T13:57:09;20.60;99.90
14210;DHT22;7188;56.070;12.698;2022-07-11T13:59:35;20.30;99.90
14210;DHT22;7188;56.070;12.698;2022-07-11T14:02:02;20.00;99.90
14210;DHT22;7188;56.070;12.698;2022-07-11T14:04:28;20.10;99.90
14210;DHT22;7188;56.070;12.698;2022-07-11T14:06:54;19.90;99.90
14210;DHT22;7188;56.070;12.698;2022-07-11T14:09:20;20.00;99.90
14210;DHT22;7188;56.070;12.698;2022-07-11T14:11:45;20.10;99.90
14210;DHT22;7188;56.070;12.698;2022-07-11T14:14:12;20.10;99.90
14210;DHT22;7188;56.070;12.698;2022-07-11T14:16:37;20.30;99.90
14210;DHT22;7188;56.070;12.698;2022-07-11T14:19:03;20.50;99.90
14210;DHT22;7188;56.070;12.698;2022-07-11T14:21:38;20.30;99.90
14210;DHT22;7188;56.070;12.698;2022-07-11T14:24:05;20.30;99.90
14210;DHT22;7188;56.070;12.698;2022-07-11T14:26:34;20.40;99.90
14210;DHT22;7188;56.070;12.698;2022-07-11T14:29:02;20.30;99.90
14210;DHT22;7188;56.070;12.698;2022-07-11T14:31:28;20.30;99.90
14210;DHT22;7188;56.070;12.698;2022-07-11T14:33:54;20.20;99.90
14210;DHT22;7188;56.070;12.698;2022-07-11T14:36:21;20.40;99.90
14210;DHT22;7188;56.070;12.698;2022-07-11T14:38:46;20.40;99.90
14210;DHT22;7188;56.070;12.698;2022-07-11T14:41:14;20.20;99.90
14210;DHT22;7188;56.070;12.698;2022-07-11T14:43:41;20.10;99.90
14210;DHT22;7188;56.070;12.698;2022-07-11T14:46:07;20.10;99.90
14210;DHT22;7188;56.070;12.698;2022-07-11T14:48:33;20.00;99.90
14210;DHT22;7188;56.070;12.698;2022-07-11T14:50:59;20.10;99.90
14210;DHT22;7188;56.070;12.698;2022-07-11T14:53:25;20.10;99.90
14210;DHT22;7188;56.070;12.698;2022-07-11T14:55:51;20.10;99.90
14210;DHT22;7188;56.070;12.698;2022-07-11T14:58:17;20.40;99.90
14210;DHT22;7188;56.070;12.698;2022-07-11T15:00:43;20.50;99.90
14210;DHT22;7188;56.070;12.698;2022-07-11T15:03:12;20.60;99.90
14210;DHT22;7188;56.070;12.698;2022-07-11T15:05:57;20.80;99.90
14210;DHT22;7188;56.070;12.698;2022-07-11T15:08:24;20.90;99.90
14210;DHT22;7188;56.070;12.698;2022-07-11T15:11:09;20.90;99.90
14210;DHT22;7188;56.070;12.698;2022-07-11T15:14:08;20.80;99.90
14210;DHT22;7188;56.070;12.698;2022-07-11T15:16:34;20.80;99.90
14210;DHT22;7188;56.070;12.698;2022-07-11T15:19:02;20.60;99.90
14210;DHT22;7188;56.070;12.698;2022-07-11T15:21:28;20.40;99.90
14210;DHT22;7188;56.070;12.698;2022-07-11T15:23:55;20.50;99.90
14210;DHT22;7188;56.070;12.698;2022-07-11T15:26:21;20.50;99.90
14210;DHT22;7188;56.070;12.698;2022-07-11T15:28:46;20.70;99.90
14210;DHT22;7188;56.070;12.698;2022-07-11T15:31:13;20.80;99.90
14210;DHT22;7188;56.070;12.698;2022-07-11T15:33:40;20.80;99.90
14210;DHT22;7188;56.070;12.698;2022-07-11T15:36:09;20.70;99.90
14210;DHT22;7188;56.070;12.698;2022-07-11T15:38:35;20.70;99.90
14210;DHT22;7188;56.070;12.698;2022-07-11T15:41:01;20.60;99.90
14210;DHT22;7188;56.070;12.698;2022-07-11T15:43:29;20.60;99.90
14210;DHT22;7188;56.070;12.698;2022-07-11T15:45:54;20.60;99.90
14210;DHT22;7188;56.070;12.698;2022-07-11T15:48:20;20.40;99.90
14210;DHT22;7188;56.070;12.698;2022-07-11T15:50:46;20.30;99.90
14210;DHT22;7188;56.070;12.698;2022-07-11T15:53:12;20.30;99.90
14210;DHT22;7188;56.070;12.698;2022-07-11T15:55:37;20.40;99.90
14210;DHT22;7188;56.070;12.698;2022-07-11T15:58:03;20.30;99.90
14210;DHT22;7188;56.070;12.698;2022-07-11T16:00:29;20.20;99.90
14210;DHT22;7188;56.070;12.698;2022-07-11T16:02:55;20.10;99.90
14210;DHT22;7188;56.070;12.698;2022-07-11T16:05:21;20.10;99.90
14210;DHT22;7188;56.070;12.698;2022-07-11T16:07:47;20.10;99.90
14210;DHT22;7188;56.070;12.698;2022-07-11T16:10:14;20.20;99.90
14210;DHT22;7188;56.070;12.698;2022-07-11T16:12:41;20.20;99.90
14210;DHT22;7188;56.070;12.698;2022-07-11T16:15:07;20.30;99.90